private Wetterstation Struckum
Wetterdaten: aktuell Dienstag, 01.12.2020 22:55
Datum Zeit Temp. A. Feuchte A. Luftdruck Regen Wind Richtung Richtung Sonnenschein Solar Taupunkt Windchill Windben
01.12.2020 22:55 5,1 C 91 % 1022,4 hPa 0,0 l/m 4,0 km/h (1 Bft) O 80 0 min 0 W/m 3,8 C 5,1 C 4,8 km/h (1 Bft)
01.12.2020 21:55 5,3 C 91 % 1021,9 hPa 0,0 l/m 8,4 km/h (2 Bft) O 80 0 min 0 W/m 4,0 C 3,6 C 9,7 km/h (2 Bft)
01.12.2020 20:55 5,3 C 91 % 1021,2 hPa 0,0 l/m 9,1 km/h (2 Bft) NO 56 0 min 0 W/m 4,0 C 3,1 C 11,3 km/h (2 Bft)
01.12.2020 19:55 5,3 C 92 % 1021,0 hPa 0,0 l/m 7,2 km/h (2 Bft) NO 46 0 min 0 W/m 4,1 C 4,6 C 11,3 km/h (2 Bft)
01.12.2020 18:55 5,3 C 93 % 1020,0 hPa 0,0 l/m 8,3 km/h (2 Bft) NO 48 0 min 0 W/m 4,3 C 3,7 C 11,3 km/h (2 Bft)
01.12.2020 17:55 5,3 C 93 % 1019,4 hPa 0,0 l/m 5,1 km/h (1 Bft) NO 51 0 min 0 W/m 4,3 C 5,3 C 6,4 km/h (2 Bft)
01.12.2020 16:55 5,3 C 93 % 1018,5 hPa 0,3 l/m 8,6 km/h (2 Bft) NO 51 0 min 0 W/m 4,3 C 3,4 C 9,7 km/h (2 Bft)
01.12.2020 15:55 5,3 C 93 % 1017,7 hPa 0,0 l/m 6,3 km/h (2 Bft) NO 52 0 min 0 W/m 4,3 C 5,3 C 9,7 km/h (2 Bft)
01.12.2020 14:55 5,3 C 94 % 1016,9 hPa 0,0 l/m 8,1 km/h (2 Bft) NO 48 0 min 9 W/m 4,4 C 3,8 C 9,7 km/h (2 Bft)
01.12.2020 13:55 5,2 C 94 % 1016,2 hPa 0,0 l/m 5,5 km/h (2 Bft) NO 36 0 min 26 W/m 4,3 C 5,2 C 9,7 km/h (2 Bft)
01.12.2020 12:55 4,7 C 94 % 1015,6 hPa 0,0 l/m 7,4 km/h (2 Bft) NO 37 0 min 67 W/m 3,8 C 3,8 C 9,7 km/h (2 Bft)
01.12.2020 11:55 4,3 C 94 % 1014,9 hPa 0,0 l/m 4,0 km/h (1 Bft) NO 46 0 min 51 W/m 3,4 C 4,3 C 6,4 km/h (2 Bft)
01.12.2020 10:49 4,0 C 93 % 1013,7 hPa 0,0 l/m 6,2 km/h (2 Bft) O-NO 59 0 min 54 W/m 3,0 C 4,0 C 8,0 km/h (2 Bft)
01.12.2020 09:49 3,7 C 93 % 1013,0 hPa 0,0 l/m 8,0 km/h (2 Bft) NO 54 0 min 32 W/m 2,7 C 2,2 C 12,9 km/h (3 Bft)
01.12.2020 08:49 3,6 C 93 % 1012,1 hPa 0,3 l/m 4,2 km/h (1 Bft) O 90 0 min 0 W/m 2,6 C 3,6 C 6,4 km/h (2 Bft)
01.12.2020 07:49 3,5 C 93 % 1010,9 hPa 0,0 l/m 6,9 km/h (2 Bft) O 90 0 min 0 W/m 2,5 C 3,0 C 9,7 km/h (2 Bft)
01.12.2020 06:49 3,4 C 93 % 1009,8 hPa 0,0 l/m 7,4 km/h (2 Bft) O-SO 122 0 min 0 W/m 2,4 C 2,5 C 9,7 km/h (2 Bft)
01.12.2020 05:49 3,3 C 93 % 1009,0 hPa 0,0 l/m 8,5 km/h (2 Bft) O-SO 122 0 min 0 W/m 2,3 C 1,4 C 9,7 km/h (2 Bft)
01.12.2020 04:49 3,2 C 93 % 1008,6 hPa 0,0 l/m 10,1 km/h (2 Bft) O-SO 122 0 min 0 W/m 2,2 C 0,0 C 14,5 km/h (3 Bft)
01.12.2020 03:49 3,1 C 93 % 1008,2 hPa 0,0 l/m 9,4 km/h (2 Bft) SO 133 0 min 0 W/m 2,1 C 0,4 C 11,3 km/h (2 Bft)
01.12.2020 02:49 3,1 C 93 % 1008,1 hPa 0,0 l/m 10,1 km/h (2 Bft) SO 136 0 min 0 W/m 2,1 C -0,1 C 14,5 km/h (3 Bft)
01.12.2020 01:49 2,8 C 93 % 1008,1 hPa 0,0 l/m 8,9 km/h (2 Bft) S-SO 150 0 min 0 W/m 1,8 C 0,5 C 9,7 km/h (2 Bft)
01.12.2020 00:49 2,7 C 92 % 1008,1 hPa 0,3 l/m 12,9 km/h (3 Bft) S-SO 161 0 min 0 W/m 1,5 C -2,5 C 16,1 km/h (3 Bft)
30.11.2020 23:47 2,5 C 92 % 1008,5 hPa 0,0 l/m 16,0 km/h (3 Bft) S-SO 159 0 min 0 W/m 1,3 C -4,5 C 20,9 km/h (4 Bft)
30.11.2020 23:00 2,3 C 92 % 1008,8 hPa 0,0 l/m 19,3 km/h (3 Bft) S 180 0 min 0 W/m 1,1 C -6,4 C 24,6 km/h (4 Bft)
_ Min-Zeit 23:00 20:33 00:37 - 11:19 - - - - 23:00 00:04 11:19
Minimum _ 2,3 C 91 % 1008,0 hPa - 0,0 km/h (0 Bft) - - - - 1,1 C -6,4 C 0,0 km/h (0 Bft)
_ Max-Zeit 16:42 10:00 22:47 23:57 00:04 - - 23:00 12:51 14:31 14:44 23:05
Maximum _ 5,4 C 94 % 1022,4 hPa 0,3 l/m 20,4 km/h
S-SO (4 Bft)
- - 0 min 77 W/m 4,4 C 5,3 C 26,1 km/h
S (4 Bft)
Durchschnitt _ 4,0 C 93 % 1013,7 hPa #0,9 l/m 9,5 km/h (2 Bft) NO - #0 min. 33 W/m 2,9 C 1,4 C 12,5 km/h (2 Bft)
Betreiber: Carsten-Andreas Lorenzen